createdAt,value
2018-01-27T00:00:50.598Z,985.94
2018-01-27T00:01:50.604Z,985.95
2018-01-27T00:02:50.592Z,985.92
2018-01-27T00:03:50.632Z,985.91
2018-01-27T00:04:50.589Z,985.83
2018-01-27T00:05:50.585Z,985.80
2018-01-27T00:06:50.582Z,985.80
2018-01-27T00:07:50.582Z,985.79
2018-01-27T00:08:50.637Z,985.79
2018-01-27T00:09:50.577Z,985.81
2018-01-27T00:10:50.612Z,985.85
2018-01-27T00:11:50.569Z,985.76
2018-01-27T00:12:50.569Z,985.81
2018-01-27T00:13:50.570Z,985.80
2018-01-27T00:14:50.607Z,985.82
2018-01-27T00:15:50.564Z,985.82
2018-01-27T00:16:50.560Z,985.83
2018-01-27T00:17:50.557Z,985.82
2018-01-27T00:18:50.550Z,985.82
2018-01-27T00:19:50.613Z,985.79
2018-01-27T00:20:50.607Z,985.77
2018-01-27T00:21:50.544Z,985.77
2018-01-27T00:22:50.541Z,985.77
2018-01-27T00:23:50.540Z,985.78
2018-01-27T00:24:50.538Z,985.73
2018-01-27T00:25:50.578Z,985.76
2018-01-27T00:26:50.534Z,985.76
2018-01-27T00:27:50.530Z,985.71
2018-01-27T00:28:50.526Z,985.71
2018-01-27T00:29:50.571Z,985.68
2018-01-27T00:30:50.558Z,985.74
2018-01-27T00:31:50.518Z,985.70
2018-01-27T00:32:51.031Z,985.76
2018-01-27T00:33:51.017Z,985.79
2018-01-27T00:34:50.511Z,985.77
2018-01-27T00:35:50.546Z,985.80
2018-01-27T00:36:50.505Z,985.84
2018-01-27T00:37:50.503Z,985.82
2018-01-27T00:38:51.299Z,985.84
2018-01-27T00:39:50.496Z,985.83
2018-01-27T00:40:50.533Z,985.82
2018-01-27T00:41:50.490Z,985.91
2018-01-27T00:42:50.496Z,985.90
2018-01-27T00:43:50.487Z,985.88
2018-01-27T00:44:50.485Z,985.87
2018-01-27T00:45:50.524Z,985.88
2018-01-27T00:46:50.481Z,985.88
2018-01-27T00:47:50.477Z,985.87
2018-01-27T00:48:50.473Z,985.84
2018-01-27T00:49:50.476Z,985.90
2018-01-27T00:50:50.508Z,985.83
2018-01-27T00:51:50.464Z,985.87
2018-01-27T00:52:50.467Z,985.87
2018-01-27T00:53:50.456Z,985.88
2018-01-27T00:54:50.458Z,985.92
2018-01-27T00:55:50.520Z,985.91
2018-01-27T00:56:50.509Z,985.94
2018-01-27T00:57:50.450Z,985.96
2018-01-27T00:58:50.449Z,985.96
2018-01-27T00:59:50.446Z,985.99
2018-01-27T01:00:50.439Z,986.00
2018-01-27T01:01:50.482Z,986.01
2018-01-27T01:02:50.436Z,986.03
2018-01-27T01:03:50.433Z,986.07
2018-01-27T01:04:50.431Z,986.12
2018-01-27T01:05:50.428Z,986.13
2018-01-27T01:06:50.473Z,986.15
2018-01-27T01:07:50.424Z,986.21
2018-01-27T01:08:50.424Z,986.18
2018-01-27T01:09:50.417Z,986.23
2018-01-27T01:10:50.413Z,986.24
2018-01-27T01:11:50.416Z,986.25
2018-01-27T01:12:50.445Z,986.24
2018-01-27T01:13:50.409Z,986.25
2018-01-27T01:14:50.404Z,986.23
2018-01-27T01:15:50.401Z,986.22
2018-01-27T01:16:50.397Z,986.23
2018-01-27T01:17:50.434Z,986.22
2018-01-27T01:18:50.393Z,986.18
2018-01-27T01:19:50.389Z,986.18
2018-01-27T01:20:50.386Z,986.14
2018-01-27T01:21:50.381Z,986.17
2018-01-27T01:22:50.427Z,986.17
2018-01-27T01:23:50.382Z,986.18
2018-01-27T01:24:50.376Z,986.17
2018-01-27T01:25:50.373Z,986.22
2018-01-27T01:26:50.405Z,986.24
2018-01-27T01:27:50.368Z,986.25
2018-01-27T01:28:50.365Z,986.23
2018-01-27T01:29:50.439Z,986.24
2018-01-27T01:30:50.357Z,986.27
2018-01-27T01:31:50.401Z,986.27
2018-01-27T01:32:50.354Z,986.25
2018-01-27T01:33:50.354Z,986.23
2018-01-27T01:34:50.354Z,986.27
2018-01-27T01:35:50.351Z,986.28
2018-01-27T01:36:50.380Z,986.23
2018-01-27T01:37:50.341Z,986.24
2018-01-27T01:38:50.339Z,986.26
2018-01-27T01:39:51.099Z,986.29
2018-01-27T01:40:50.337Z,986.29
2018-01-27T01:41:50.388Z,986.32
2018-01-27T01:42:50.328Z,986.37
2018-01-27T01:43:50.325Z,986.38
2018-01-27T01:44:50.321Z,986.45
2018-01-27T01:45:50.320Z,986.48
2018-01-27T01:46:50.352Z,986.52
2018-01-27T01:47:50.357Z,986.49
2018-01-27T01:48:50.313Z,986.49
2018-01-27T01:49:50.307Z,986.48
2018-01-27T01:50:50.307Z,986.49
2018-01-27T01:51:50.306Z,986.47
2018-01-27T01:52:50.362Z,986.44
2018-01-27T01:53:50.296Z,986.46
2018-01-27T01:54:50.295Z,986.48
2018-01-27T01:55:50.292Z,986.49
2018-01-27T01:56:50.287Z,986.49
2018-01-27T01:57:50.347Z,986.47
2018-01-27T01:58:50.284Z,986.49
2018-01-27T01:59:50.435Z,986.53
2018-01-27T02:00:50.278Z,986.49
2018-01-27T02:01:50.276Z,986.49
2018-01-27T02:02:50.273Z,986.47
2018-01-27T02:03:50.325Z,986.49
2018-01-27T02:04:50.267Z,986.51
2018-01-27T02:05:50.266Z,986.53
2018-01-27T02:06:50.324Z,986.54
2018-01-27T02:07:50.259Z,986.51
2018-01-27T02:08:50.651Z,986.50
2018-01-27T02:09:50.253Z,986.49
2018-01-27T02:10:50.252Z,986.49
2018-01-27T02:11:50.305Z,986.52
2018-01-27T02:12:50.247Z,986.55
2018-01-27T02:13:50.241Z,986.56
2018-01-27T02:14:50.239Z,986.60
2018-01-27T02:15:50.237Z,986.63
2018-01-27T02:16:50.272Z,986.62
2018-01-27T02:17:50.229Z,986.67
2018-01-27T02:18:50.280Z,986.65
2018-01-27T02:19:50.230Z,986.61
2018-01-27T02:20:50.224Z,986.62
2018-01-27T02:21:50.220Z,986.64
2018-01-27T02:22:50.225Z,986.60
2018-01-27T02:23:50.217Z,986.62
2018-01-27T02:24:50.259Z,986.60
2018-01-27T02:25:50.663Z,986.60
2018-01-27T02:26:50.216Z,986.62
2018-01-27T02:27:50.209Z,986.65
2018-01-27T02:28:50.208Z,986.64
2018-01-27T02:29:50.244Z,986.69
2018-01-27T02:30:50.197Z,986.67
2018-01-27T02:31:50.198Z,986.69
2018-01-27T02:32:50.195Z,986.72
2018-01-27T02:33:50.231Z,986.74
2018-01-27T02:34:50.186Z,986.71
2018-01-27T02:35:50.185Z,986.74
2018-01-27T02:36:50.183Z,986.69
2018-01-27T02:37:50.184Z,986.72
2018-01-27T02:38:50.224Z,986.74
2018-01-27T02:39:50.175Z,986.75
2018-01-27T02:40:50.174Z,986.74
2018-01-27T02:41:50.169Z,986.74
2018-01-27T02:42:50.167Z,986.75
2018-01-27T02:43:50.225Z,986.77
2018-01-27T02:44:50.123Z,986.80
2018-01-27T02:45:50.112Z,986.77
2018-01-27T02:46:50.110Z,986.79
2018-01-27T02:47:50.148Z,986.76
2018-01-27T02:48:50.156Z,986.79
2018-01-27T02:49:50.102Z,986.77
2018-01-27T02:50:50.111Z,986.81
2018-01-27T02:51:50.110Z,986.81
2018-01-27T02:52:50.096Z,986.84
2018-01-27T02:53:50.137Z,986.84
2018-01-27T02:54:50.089Z,986.83
2018-01-27T02:55:50.092Z,986.84
2018-01-27T02:56:50.095Z,986.82
2018-01-27T02:57:50.093Z,986.85
2018-01-27T02:58:50.132Z,986.85
2018-01-27T02:59:50.084Z,986.87
2018-01-27T03:00:50.073Z,986.84
2018-01-27T03:01:50.077Z,986.86
2018-01-27T03:02:50.068Z,986.90
2018-01-27T03:03:50.118Z,986.90
2018-01-27T03:04:50.104Z,986.92
2018-01-27T03:05:50.069Z,986.89
2018-01-27T03:06:50.057Z,986.91
2018-01-27T03:07:50.068Z,986.91
2018-01-27T03:08:50.050Z,986.97
2018-01-27T03:09:50.097Z,986.94
2018-01-27T03:10:50.046Z,986.93
2018-01-27T03:11:50.045Z,986.98
2018-01-27T03:12:50.046Z,986.97
2018-01-27T03:13:50.048Z,986.96
2018-01-27T03:14:50.087Z,986.95
2018-01-27T03:15:50.032Z,986.96
2018-01-27T03:16:50.041Z,986.97
2018-01-27T03:17:50.069Z,986.97
2018-01-27T03:18:50.027Z,986.95
2018-01-27T03:19:50.062Z,986.91
2018-01-27T03:20:50.030Z,986.93
2018-01-27T03:21:50.019Z,986.93
2018-01-27T03:22:50.027Z,986.97
2018-01-27T03:23:50.013Z,986.96
2018-01-27T03:24:50.063Z,986.97
2018-01-27T03:25:50.018Z,986.99
2018-01-27T03:26:50.172Z,987.00
2018-01-27T03:27:50.003Z,987.02
2018-01-27T03:28:50.050Z,987.02
2018-01-27T03:29:49.997Z,987.08
2018-01-27T03:30:50.034Z,987.08
2018-01-27T03:31:50.005Z,987.07
2018-01-27T03:32:49.986Z,987.09
2018-01-27T03:33:49.987Z,987.09
2018-01-27T03:34:49.981Z,987.11
2018-01-27T03:35:50.043Z,987.10
2018-01-27T03:36:49.980Z,987.09
2018-01-27T03:37:49.976Z,987.10
2018-01-27T03:38:49.972Z,987.11
2018-01-27T03:39:49.975Z,987.10
2018-01-27T03:40:50.024Z,987.14
2018-01-27T03:41:50.418Z,987.16
2018-01-27T03:42:49.975Z,987.15
2018-01-27T03:43:50.112Z,987.15
2018-01-27T03:44:49.958Z,987.15
2018-01-27T03:45:49.962Z,987.18
2018-01-27T03:46:49.989Z,987.16
2018-01-27T03:47:49.960Z,987.16
2018-01-27T03:48:49.947Z,987.15
2018-01-27T03:49:49.953Z,987.21
2018-01-27T03:50:49.938Z,987.25
2018-01-27T03:51:49.983Z,987.24
2018-01-27T03:52:49.945Z,987.27
2018-01-27T03:53:49.934Z,987.26
2018-01-27T03:54:49.969Z,987.32
2018-01-27T03:55:49.926Z,987.29
2018-01-27T03:56:49.927Z,987.33
2018-01-27T03:57:49.971Z,987.33
2018-01-27T03:58:49.920Z,987.33
2018-01-27T03:59:49.916Z,987.38
2018-01-27T04:00:49.919Z,987.40
2018-01-27T04:01:49.920Z,987.38
2018-01-27T04:02:49.962Z,987.42
2018-01-27T04:03:49.951Z,987.43
2018-01-27T04:04:49.910Z,987.46
2018-01-27T04:05:49.904Z,987.48
2018-01-27T04:06:49.907Z,987.50
2018-01-27T04:07:49.906Z,987.52
2018-01-27T04:08:49.938Z,987.54
2018-01-27T04:09:49.993Z,987.57
2018-01-27T04:10:49.891Z,987.57
2018-01-27T04:11:49.898Z,987.59
2018-01-27T04:12:49.933Z,987.59
2018-01-27T04:13:49.925Z,987.63
2018-01-27T04:14:49.888Z,987.59
2018-01-27T04:15:49.886Z,987.61
2018-01-27T04:16:49.875Z,987.67
2018-01-27T04:17:49.869Z,987.72
2018-01-27T04:18:49.911Z,987.71
2018-01-27T04:19:49.877Z,987.70
2018-01-27T04:20:49.866Z,987.76
2018-01-27T04:21:49.872Z,987.77
2018-01-27T04:22:49.904Z,987.79
2018-01-27T04:23:49.855Z,987.80
2018-01-27T04:24:49.863Z,987.78
2018-01-27T04:25:49.849Z,987.83
2018-01-27T04:26:49.847Z,987.84
2018-01-27T04:27:49.885Z,987.85
2018-01-27T04:28:49.842Z,987.87
2018-01-27T04:29:49.841Z,987.94
2018-01-27T04:30:49.849Z,987.90
2018-01-27T04:31:49.836Z,987.95
2018-01-27T04:32:49.872Z,987.98
2018-01-27T04:33:49.839Z,988.00
2018-01-27T04:34:49.828Z,988.05
2018-01-27T04:35:49.828Z,988.04
2018-01-27T04:36:49.833Z,988.05
2018-01-27T04:37:49.875Z,988.09
2018-01-27T04:38:49.856Z,988.07
2018-01-27T04:39:49.828Z,988.11
2018-01-27T04:40:49.811Z,988.14
2018-01-27T04:41:49.825Z,988.19
2018-01-27T04:42:49.816Z,988.15
2018-01-27T04:43:49.850Z,988.10
2018-01-27T04:44:49.816Z,988.10
2018-01-27T04:45:49.805Z,988.10
2018-01-27T04:46:50.225Z,988.14
2018-01-27T04:47:49.794Z,988.10
2018-01-27T04:48:49.846Z,988.15
2018-01-27T04:49:49.788Z,988.07
2018-01-27T04:50:49.795Z,988.11
2018-01-27T04:51:49.780Z,988.10
2018-01-27T04:52:49.792Z,988.12
2018-01-27T04:53:49.823Z,988.11
2018-01-27T04:54:49.784Z,988.09
2018-01-27T04:55:49.774Z,988.13
2018-01-27T04:56:49.779Z,988.15
2018-01-27T04:57:49.766Z,988.15
2018-01-27T04:58:49.806Z,988.17
2018-01-27T04:59:49.763Z,988.17
2018-01-27T05:00:49.761Z,988.19
2018-01-27T05:01:49.770Z,988.18
2018-01-27T05:02:49.935Z,988.15
2018-01-27T05:03:49.807Z,988.15
2018-01-27T05:04:49.751Z,988.18
2018-01-27T05:05:49.758Z,988.16
2018-01-27T05:06:49.743Z,988.15
2018-01-27T05:07:49.752Z,988.16
2018-01-27T05:08:49.784Z,988.19
2018-01-27T05:09:49.746Z,988.24
2018-01-27T05:10:49.736Z,988.20
2018-01-27T05:11:49.729Z,988.28
2018-01-27T05:12:49.734Z,988.26
2018-01-27T05:13:49.775Z,988.29
2018-01-27T05:14:49.735Z,988.29
2018-01-27T05:15:49.729Z,988.32
2018-01-27T05:16:49.726Z,988.32
2018-01-27T05:17:49.719Z,988.33
2018-01-27T05:18:49.759Z,988.37
2018-01-27T05:19:49.715Z,988.37
2018-01-27T05:20:49.716Z,988.38
2018-01-27T05:21:49.701Z,988.38
2018-01-27T05:22:49.707Z,988.40
2018-01-27T05:23:49.744Z,988.42
2018-01-27T05:24:49.743Z,988.42
2018-01-27T05:25:49.699Z,988.40
2018-01-27T05:26:49.703Z,988.41
2018-01-27T05:27:49.702Z,988.44
2018-01-27T05:28:49.693Z,988.44
2018-01-27T05:29:50.659Z,988.44
2018-01-27T05:30:49.687Z,988.46
2018-01-27T05:31:49.678Z,988.49
2018-01-27T05:32:49.673Z,988.48
2018-01-27T05:33:49.675Z,988.46
2018-01-27T05:34:49.712Z,988.50
2018-01-27T05:35:49.673Z,988.52
2018-01-27T05:36:49.658Z,988.49
2018-01-27T05:37:49.664Z,988.54
2018-01-27T05:38:49.665Z,988.56
2018-01-27T05:39:49.702Z,988.58
2018-01-27T05:40:49.650Z,988.62
2018-01-27T05:41:49.645Z,988.61
2018-01-27T05:42:49.677Z,988.62
2018-01-27T05:43:49.641Z,988.63
2018-01-27T05:44:49.688Z,988.63
2018-01-27T05:45:49.680Z,988.66
2018-01-27T05:46:49.649Z,988.65
2018-01-27T05:47:49.629Z,988.67
2018-01-27T05:48:49.640Z,988.67
2018-01-27T05:49:49.669Z,988.66
2018-01-27T05:50:49.622Z,988.71
2018-01-27T05:51:49.618Z,988.64
2018-01-27T05:52:49.617Z,988.70
2018-01-27T05:53:49.664Z,988.72
2018-01-27T05:54:49.623Z,988.69
2018-01-27T05:55:49.649Z,988.70
2018-01-27T05:56:49.614Z,988.73
2018-01-27T05:57:49.604Z,988.75
2018-01-27T05:58:49.612Z,988.78
2018-01-27T05:59:49.597Z,988.80
2018-01-27T06:00:49.640Z,988.83
2018-01-27T06:01:49.602Z,988.82
2018-01-27T06:02:49.630Z,988.84
2018-01-27T06:03:49.597Z,988.85
2018-01-27T06:04:49.590Z,988.84
2018-01-27T06:05:49.594Z,988.85
2018-01-27T06:06:49.629Z,988.84
2018-01-27T06:07:49.587Z,988.84
2018-01-27T06:08:49.636Z,988.87
2018-01-27T06:09:49.580Z,988.89
2018-01-27T06:10:49.577Z,988.90
2018-01-27T06:11:49.602Z,988.89
2018-01-27T06:12:49.574Z,988.91
2018-01-27T06:13:49.561Z,988.92
2018-01-27T06:14:49.574Z,988.94
2018-01-27T06:15:49.569Z,988.96
2018-01-27T06:16:49.592Z,988.98
2018-01-27T06:17:49.562Z,988.95
2018-01-27T06:18:49.558Z,988.98
2018-01-27T06:19:49.546Z,988.99
2018-01-27T06:20:49.543Z,989.03
2018-01-27T06:21:49.586Z,989.00
2018-01-27T06:22:49.595Z,989.03
2018-01-27T06:23:49.548Z,989.09
2018-01-27T06:24:49.534Z,989.09
2018-01-27T06:25:49.541Z,989.15
2018-01-27T06:26:49.535Z,989.17
2018-01-27T06:27:49.587Z,989.15
2018-01-27T06:28:49.526Z,989.16
2018-01-27T06:29:49.522Z,989.20
2018-01-27T06:30:49.526Z,989.22
2018-01-27T06:31:49.528Z,989.30
2018-01-27T06:32:49.557Z,989.31
2018-01-27T06:33:49.518Z,989.29
2018-01-27T06:34:49.515Z,989.34
2018-01-27T06:35:49.506Z,989.35
2018-01-27T06:36:49.513Z,989.37
2018-01-27T06:37:49.545Z,989.40
2018-01-27T06:38:49.547Z,989.41
2018-01-27T06:39:49.508Z,989.43
2018-01-27T06:40:49.501Z,989.42
2018-01-27T06:41:49.488Z,989.45
2018-01-27T06:42:49.534Z,989.48
2018-01-27T06:43:49.521Z,989.52
2018-01-27T06:44:49.486Z,989.53
2018-01-27T06:45:49.493Z,989.52
2018-01-27T06:46:49.474Z,989.54
2018-01-27T06:47:49.478Z,989.54
2018-01-27T06:48:49.578Z,989.57
2018-01-27T06:49:49.472Z,989.58
2018-01-27T06:50:49.463Z,989.59
2018-01-27T06:51:49.477Z,989.61
2018-01-27T06:52:49.469Z,989.65
2018-01-27T06:53:49.496Z,989.63
2018-01-27T06:54:49.474Z,989.63
2018-01-27T06:55:49.450Z,989.63
2018-01-27T06:56:49.457Z,989.64
2018-01-27T06:57:49.446Z,989.68
2018-01-27T06:58:49.497Z,989.66
2018-01-27T06:59:49.452Z,989.69
2018-01-27T07:00:49.449Z,989.68
2018-01-27T07:01:49.436Z,989.70
2018-01-27T07:02:49.443Z,989.73
2018-01-27T07:03:49.499Z,989.72
2018-01-27T07:04:49.475Z,989.73
2018-01-27T07:05:49.440Z,989.76
2018-01-27T07:06:49.431Z,989.77
2018-01-27T07:07:49.421Z,989.78
2018-01-27T07:08:49.418Z,989.77
2018-01-27T07:09:49.459Z,989.74
2018-01-27T07:10:49.412Z,989.75
2018-01-27T07:11:49.418Z,989.74
2018-01-27T07:12:49.415Z,989.72
2018-01-27T07:13:49.401Z,989.73
2018-01-27T07:14:49.459Z,989.73
2018-01-27T07:15:49.410Z,989.72
2018-01-27T07:16:49.404Z,989.75
2018-01-27T07:17:49.398Z,989.81
2018-01-27T07:18:49.434Z,989.82
2018-01-27T07:19:49.397Z,989.82
2018-01-27T07:20:49.432Z,989.82
2018-01-27T07:21:49.558Z,989.87
2018-01-27T07:22:49.388Z,989.92
2018-01-27T07:23:49.425Z,989.92
2018-01-27T07:24:49.387Z,989.95
2018-01-27T07:25:49.376Z,989.91
2018-01-27T07:26:49.379Z,989.90
2018-01-27T07:27:49.378Z,989.94
2018-01-27T07:28:49.406Z,989.94
2018-01-27T07:29:49.418Z,989.95
2018-01-27T07:30:49.362Z,989.97
2018-01-27T07:31:49.366Z,989.97
2018-01-27T07:32:49.367Z,989.99
2018-01-27T07:33:49.356Z,989.98
2018-01-27T07:34:49.406Z,989.98
2018-01-27T07:35:50.294Z,989.98
2018-01-27T07:36:49.347Z,989.99
2018-01-27T07:37:49.352Z,989.97
2018-01-27T07:38:49.341Z,989.99
2018-01-27T07:39:49.393Z,990.00
2018-01-27T07:40:49.336Z,989.99
2018-01-27T07:41:49.345Z,990.00
2018-01-27T07:42:49.342Z,990.01
2018-01-27T07:43:49.382Z,989.99
2018-01-27T07:44:49.330Z,990.03
2018-01-27T07:45:49.390Z,990.04
2018-01-27T07:46:49.322Z,990.09
2018-01-27T07:47:49.319Z,990.06
2018-01-27T07:48:49.362Z,990.09
2018-01-27T07:49:49.312Z,990.09
2018-01-27T07:50:49.312Z,990.10
2018-01-27T07:51:49.361Z,990.10
2018-01-27T07:52:49.314Z,990.12
2018-01-27T07:53:49.355Z,990.11
2018-01-27T07:54:49.299Z,990.10
2018-01-27T07:55:49.299Z,990.11
2018-01-27T07:56:50.300Z,990.12
2018-01-27T07:57:49.293Z,990.13
2018-01-27T07:58:49.304Z,990.10
2018-01-27T07:59:49.297Z,990.16
2018-01-27T08:00:49.295Z,990.17
2018-01-27T08:01:49.288Z,990.20
2018-01-27T08:02:49.338Z,990.19
2018-01-27T08:03:49.325Z,990.22
2018-01-27T08:04:49.276Z,990.24
2018-01-27T08:05:49.273Z,990.26
2018-01-27T08:06:49.324Z,990.26
2018-01-27T08:07:49.326Z,990.26
2018-01-27T08:08:49.267Z,990.24
2018-01-27T08:09:49.262Z,990.24
2018-01-27T08:10:49.273Z,990.22
2018-01-27T08:11:49.261Z,990.24
2018-01-27T08:12:49.306Z,990.21
2018-01-27T08:13:49.265Z,990.20
2018-01-27T08:14:49.263Z,990.21
2018-01-27T08:15:50.135Z,990.28
2018-01-27T08:16:49.261Z,990.30
2018-01-27T08:17:49.294Z,990.34
2018-01-27T08:18:49.242Z,990.37
2018-01-27T08:19:49.239Z,990.38
2018-01-27T08:20:49.246Z,990.42
2018-01-27T08:21:49.242Z,990.43
2018-01-27T08:22:49.283Z,990.44
2018-01-27T08:23:49.300Z,990.47
2018-01-27T08:24:49.242Z,990.46
2018-01-27T08:25:49.233Z,990.48
2018-01-27T08:26:49.231Z,990.48
2018-01-27T08:27:49.312Z,990.48
2018-01-27T08:28:49.226Z,990.53
2018-01-27T08:29:49.267Z,990.52
2018-01-27T08:30:49.225Z,990.53
2018-01-27T08:31:49.222Z,990.52
2018-01-27T08:32:49.208Z,990.54
2018-01-27T08:33:49.216Z,990.59
2018-01-27T08:34:49.203Z,990.57
2018-01-27T08:35:49.256Z,990.59
2018-01-27T08:36:49.210Z,990.57
2018-01-27T08:37:49.202Z,990.62
2018-01-27T08:38:49.208Z,990.62
2018-01-27T08:39:49.240Z,990.63
2018-01-27T08:40:49.202Z,990.65
2018-01-27T08:41:49.189Z,990.68
2018-01-27T08:42:49.231Z,990.66
2018-01-27T08:43:49.190Z,990.70
2018-01-27T08:44:49.189Z,990.73
2018-01-27T08:45:49.222Z,990.76
2018-01-27T08:46:49.185Z,990.75
2018-01-27T08:47:49.182Z,990.74
2018-01-27T08:48:49.170Z,990.77
2018-01-27T08:49:49.165Z,990.72
2018-01-27T08:50:49.211Z,990.76
2018-01-27T08:51:49.175Z,990.76
2018-01-27T08:52:49.157Z,990.74
2018-01-27T08:53:50.140Z,990.76
2018-01-27T08:54:49.150Z,990.77
2018-01-27T08:55:49.188Z,990.73
2018-01-27T08:56:49.150Z,990.75
2018-01-27T08:57:49.153Z,990.77
2018-01-27T08:58:49.145Z,990.73
2018-01-27T08:59:49.155Z,990.76
2018-01-27T09:00:49.185Z,990.77
2018-01-27T09:01:51.313Z,990.75
2018-01-27T09:02:49.191Z,990.75
2018-01-27T09:03:49.152Z,990.77
2018-01-27T09:04:49.211Z,990.77
2018-01-27T09:05:49.143Z,990.81
2018-01-27T09:06:49.268Z,990.78
2018-01-27T09:07:49.180Z,990.85
2018-01-27T09:08:49.126Z,990.86
2018-01-27T09:09:49.124Z,990.87
2018-01-27T09:10:49.125Z,990.83
2018-01-27T09:11:49.120Z,990.86
2018-01-27T09:12:49.169Z,990.90
2018-01-27T09:13:49.132Z,990.86
2018-01-27T09:14:49.110Z,990.86
2018-01-27T09:15:49.120Z,990.86
2018-01-27T09:16:49.148Z,990.83
2018-01-27T09:17:49.170Z,990.80
2018-01-27T09:18:50.020Z,990.81
2018-01-27T09:19:49.112Z,990.82
2018-01-27T09:20:49.098Z,990.81
2018-01-27T09:21:49.104Z,990.82
2018-01-27T09:22:49.136Z,990.87
2018-01-27T09:23:49.345Z,990.85
2018-01-27T09:24:49.094Z,990.87
2018-01-27T09:25:49.086Z,990.88
2018-01-27T09:26:49.098Z,990.91
2018-01-27T09:27:49.088Z,990.94
2018-01-27T09:28:49.124Z,990.98
2018-01-27T09:29:49.077Z,991.00
2018-01-27T09:30:49.083Z,990.99
2018-01-27T09:31:49.945Z,990.99
2018-01-27T09:32:49.112Z,991.00
2018-01-27T09:33:49.217Z,991.06
2018-01-27T09:34:49.078Z,991.07
2018-01-27T09:35:49.071Z,991.09
2018-01-27T09:36:49.072Z,991.09
2018-01-27T09:37:49.103Z,991.10
2018-01-27T09:38:49.060Z,991.15
2018-01-27T09:39:49.057Z,991.16
2018-01-27T09:40:49.065Z,991.14
2018-01-27T09:41:49.066Z,991.18
2018-01-27T09:42:49.089Z,991.20
2018-01-27T09:43:49.096Z,991.21
2018-01-27T09:44:49.055Z,991.21
2018-01-27T09:45:49.053Z,991.22
2018-01-27T09:46:49.042Z,991.21
2018-01-27T09:47:49.143Z,991.18
2018-01-27T09:48:49.051Z,991.21
2018-01-27T09:49:49.037Z,991.24
2018-01-27T09:50:49.042Z,991.22
2018-01-27T09:51:49.032Z,991.21
2018-01-27T09:52:49.083Z,991.20
2018-01-27T09:53:49.036Z,991.24
2018-01-27T09:54:49.078Z,991.20
2018-01-27T09:55:49.024Z,991.21
2018-01-27T09:56:49.034Z,991.21
2018-01-27T09:57:49.029Z,991.20
2018-01-27T09:58:49.028Z,991.22
2018-01-27T09:59:49.062Z,991.18
2018-01-27T10:00:49.013Z,991.22
2018-01-27T10:01:49.018Z,991.23
2018-01-27T10:02:49.051Z,991.26
2018-01-27T10:03:49.016Z,991.26
2018-01-27T10:04:49.093Z,991.25
2018-01-27T10:05:49.009Z,991.23
2018-01-27T10:06:49.223Z,991.25
2018-01-27T10:07:49.048Z,991.24
2018-01-27T10:08:49.005Z,991.25
2018-01-27T10:09:49.005Z,991.27
2018-01-27T10:10:49.040Z,991.30
2018-01-27T10:11:48.991Z,991.28
2018-01-27T10:12:49.036Z,991.31
2018-01-27T10:13:48.983Z,991.32
2018-01-27T10:14:48.982Z,991.34
2018-01-27T10:15:48.979Z,991.32
2018-01-27T10:16:49.030Z,991.37
2018-01-27T10:17:49.015Z,991.34
2018-01-27T10:18:48.972Z,991.37
2018-01-27T10:19:48.981Z,991.34
2018-01-27T10:20:48.970Z,991.33
2018-01-27T10:21:48.977Z,991.33
2018-01-27T10:22:49.010Z,991.33
2018-01-27T10:23:48.975Z,991.33
2018-01-27T10:24:48.971Z,991.35
2018-01-27T10:25:48.962Z,991.32
2018-01-27T10:26:48.958Z,991.35
2018-01-27T10:27:49.003Z,991.38
2018-01-27T10:28:48.961Z,991.34
2018-01-27T10:29:48.969Z,991.36
2018-01-27T10:30:48.959Z,991.32
2018-01-27T10:31:48.948Z,991.34
2018-01-27T10:32:49.005Z,991.37
2018-01-27T10:33:48.943Z,991.38
2018-01-27T10:34:48.943Z,991.35
2018-01-27T10:35:48.941Z,991.34
2018-01-27T10:36:48.945Z,991.37
2018-01-27T10:37:48.973Z,991.38
2018-01-27T10:38:48.949Z,991.39
2018-01-27T10:39:48.931Z,991.36
2018-01-27T10:40:48.928Z,991.37
2018-01-27T10:41:49.720Z,991.35
2018-01-27T10:42:48.981Z,991.35
2018-01-27T10:43:48.934Z,991.37
2018-01-27T10:44:48.930Z,991.44
2018-01-27T10:45:48.919Z,991.45
2018-01-27T10:46:48.920Z,991.48
2018-01-27T10:47:48.959Z,991.49
2018-01-27T10:48:48.970Z,991.51
2018-01-27T10:49:48.921Z,991.50
2018-01-27T10:50:48.923Z,991.54
2018-01-27T10:51:48.911Z,991.49
2018-01-27T10:52:48.918Z,991.51
2018-01-27T10:53:48.961Z,991.53
2018-01-27T10:54:48.908Z,991.52
2018-01-27T10:55:49.002Z,991.51
2018-01-27T10:56:50.052Z,991.53
2018-01-27T10:57:48.898Z,991.49
2018-01-27T10:58:49.762Z,991.53
2018-01-27T10:59:48.903Z,991.50
2018-01-27T11:00:48.905Z,991.52
2018-01-27T11:01:48.902Z,991.57
2018-01-27T11:02:48.901Z,991.59
2018-01-27T11:03:48.946Z,991.60
2018-01-27T11:04:49.730Z,991.66
2018-01-27T11:05:48.897Z,991.64
2018-01-27T11:06:48.898Z,991.69
2018-01-27T11:07:48.912Z,991.75
2018-01-27T11:08:48.932Z,991.73
2018-01-27T11:09:48.930Z,991.78
2018-01-27T11:10:48.890Z,991.77
2018-01-27T11:11:48.882Z,991.80
2018-01-27T11:12:48.880Z,991.78
2018-01-27T11:13:48.937Z,991.82
2018-01-27T11:14:49.054Z,991.79
2018-01-27T11:15:48.886Z,991.81
2018-01-27T11:16:48.883Z,991.79
2018-01-27T11:17:48.876Z,991.81
2018-01-27T11:18:48.929Z,991.81
2018-01-27T11:19:48.912Z,991.79
2018-01-27T11:20:48.885Z,991.81
2018-01-27T11:21:48.867Z,991.83
2018-01-27T11:22:48.867Z,991.78
2018-01-27T11:23:48.874Z,991.82
2018-01-27T11:24:48.916Z,991.81
2018-01-27T11:25:48.873Z,991.82
2018-01-27T11:26:48.862Z,991.83
2018-01-27T11:27:48.870Z,991.81
2018-01-27T11:28:49.253Z,991.83
2018-01-27T11:29:48.900Z,991.84
2018-01-27T11:30:48.864Z,991.84
2018-01-27T11:31:48.861Z,991.89
2018-01-27T11:32:48.858Z,991.84
2018-01-27T11:33:48.894Z,991.85
2018-01-27T11:34:48.845Z,991.88
2018-01-27T11:35:48.862Z,991.84
2018-01-27T11:36:48.857Z,991.82
2018-01-27T11:37:48.842Z,991.82
2018-01-27T11:38:48.879Z,991.82
2018-01-27T11:39:48.846Z,991.78
2018-01-27T11:40:48.886Z,991.82
2018-01-27T11:41:48.848Z,991.87
2018-01-27T11:42:48.844Z,991.89
2018-01-27T11:43:48.836Z,991.88
2018-01-27T11:44:48.840Z,991.88
2018-01-27T11:45:48.883Z,991.91
2018-01-27T11:46:48.826Z,991.93
2018-01-27T11:47:48.867Z,991.92
2018-01-27T11:48:48.826Z,991.94
2018-01-27T11:49:48.833Z,991.88
2018-01-27T11:50:48.861Z,991.90
2018-01-27T11:51:48.832Z,991.91
2018-01-27T11:52:48.818Z,991.91
2018-01-27T11:53:48.827Z,991.91
2018-01-27T11:54:48.817Z,991.88
2018-01-27T11:55:48.859Z,991.90
2018-01-27T11:56:48.823Z,991.90
2018-01-27T11:57:48.812Z,991.89
2018-01-27T11:58:48.882Z,991.86
2018-01-27T11:59:48.817Z,991.83
2018-01-27T12:00:48.859Z,991.81
2018-01-27T12:01:48.802Z,991.80
2018-01-27T12:02:48.845Z,991.82
2018-01-27T12:03:49.258Z,991.80
2018-01-27T12:04:48.799Z,991.86
2018-01-27T12:05:48.797Z,991.83
2018-01-27T12:06:49.216Z,991.83
2018-01-27T12:07:48.836Z,991.83
2018-01-27T12:08:48.804Z,991.82
2018-01-27T12:09:48.802Z,991.78
2018-01-27T12:10:48.835Z,991.75
2018-01-27T12:11:48.869Z,991.75
2018-01-27T12:12:48.785Z,991.72
2018-01-27T12:13:48.796Z,991.74
2018-01-27T12:14:48.790Z,991.65
2018-01-27T12:15:48.942Z,991.66
2018-01-27T12:16:48.823Z,991.59
2018-01-27T12:17:48.820Z,991.56
2018-01-27T12:18:49.660Z,991.55
2018-01-27T12:19:48.794Z,991.59
2018-01-27T12:20:48.781Z,991.56
2018-01-27T12:21:49.629Z,991.52
2018-01-27T12:22:48.832Z,991.49
2018-01-27T12:23:48.780Z,991.47
2018-01-27T12:24:48.786Z,991.48
2018-01-27T12:25:48.785Z,991.48
2018-01-27T12:26:48.782Z,991.43
2018-01-27T12:27:48.818Z,991.45
2018-01-27T12:28:48.771Z,991.45